createdAt,value
2018-12-05T00:01:23.288Z,8.07
2018-12-05T00:03:52.159Z,8.00
2018-12-05T00:06:20.635Z,8.27
2018-12-05T00:08:52.071Z,8.13
2018-12-05T00:11:21.003Z,7.93
2018-12-05T00:13:49.610Z,8.47
2018-12-05T00:16:18.181Z,9.00
2018-12-05T00:18:46.710Z,8.07
2018-12-05T00:21:15.405Z,7.80
2018-12-05T00:23:44.301Z,7.37
2018-12-05T00:26:12.796Z,7.53
2018-12-05T00:28:41.258Z,8.33
2018-12-05T00:31:09.802Z,7.00
2018-12-05T00:33:38.295Z,6.63
2018-12-05T00:36:06.795Z,7.77
2018-12-05T00:38:35.307Z,7.40
2018-12-05T00:41:05.516Z,7.23
2018-12-05T00:43:34.005Z,7.53
2018-12-05T00:46:03.811Z,8.13
2018-12-05T00:48:32.298Z,8.03
2018-12-05T00:51:00.764Z,8.07
2018-12-05T00:53:29.490Z,8.10
2018-12-05T00:55:58.162Z,8.40
2018-12-05T00:58:26.663Z,8.13
2018-12-05T01:00:55.208Z,7.53
2018-12-05T01:03:23.741Z,7.60
2018-12-05T01:05:52.254Z,8.47
2018-12-05T01:08:20.856Z,7.37
2018-12-05T01:10:49.371Z,7.80
2018-12-05T01:13:17.871Z,7.97
2018-12-05T01:15:46.381Z,8.23
2018-12-05T01:18:14.893Z,7.67
2018-12-05T01:20:43.395Z,7.60
2018-12-05T01:23:11.915Z,7.90
2018-12-05T01:25:40.490Z,8.50
2018-12-05T01:28:09.180Z,8.33
2018-12-05T01:30:37.662Z,8.77
2018-12-05T01:33:06.150Z,8.27
2018-12-05T01:35:34.767Z,8.07
2018-12-05T01:38:04.666Z,8.60
2018-12-05T01:40:33.161Z,8.77
2018-12-05T01:43:02.746Z,9.00
2018-12-05T01:45:31.488Z,8.73
2018-12-05T01:47:59.979Z,8.77
2018-12-05T01:50:28.475Z,7.87
2018-12-05T01:52:57.008Z,8.73
2018-12-05T01:55:25.520Z,9.07
2018-12-05T01:57:54.680Z,9.23
2018-12-05T02:00:23.195Z,9.40
2018-12-05T02:02:51.871Z,9.70
2018-12-05T02:05:20.362Z,9.17
2018-12-05T02:07:48.868Z,10.17
2018-12-05T02:10:17.377Z,8.90
2018-12-05T02:12:45.917Z,10.23
2018-12-05T02:15:14.425Z,10.80
2018-12-05T02:17:43.388Z,10.00
2018-12-05T02:20:11.946Z,10.13
2018-12-05T02:22:40.457Z,10.07
2018-12-05T02:25:09.372Z,10.03
2018-12-05T02:27:37.885Z,10.70
2018-12-05T02:30:06.878Z,10.70
2018-12-05T02:32:35.430Z,10.57
2018-12-05T02:35:05.264Z,12.37
2018-12-05T02:37:33.774Z,12.33
2018-12-05T02:40:03.793Z,11.60
2018-12-05T02:42:32.292Z,12.33
2018-12-05T02:45:00.806Z,11.57
2018-12-05T02:47:29.338Z,11.33
2018-12-05T02:49:57.823Z,12.53
2018-12-05T02:52:26.353Z,12.00
2018-12-05T02:54:55.072Z,11.97
2018-12-05T02:57:23.666Z,12.50
2018-12-05T02:59:52.249Z,12.23
2018-12-05T03:02:20.738Z,12.00
2018-12-05T03:04:49.280Z,12.97
2018-12-05T03:07:17.794Z,12.50
2018-12-05T03:09:46.726Z,13.03
2018-12-05T03:12:15.617Z,12.90
2018-12-05T03:14:44.132Z,12.53
2018-12-05T03:17:12.620Z,12.27
2018-12-05T03:19:41.144Z,12.97
2018-12-05T03:22:09.650Z,12.30
2018-12-05T03:24:38.427Z,11.30
2018-12-05T03:27:06.941Z,11.63
2018-12-05T03:29:35.430Z,10.37
2018-12-05T03:32:06.743Z,10.40
2018-12-05T03:34:35.259Z,10.63
2018-12-05T03:37:06.116Z,11.10
2018-12-05T03:39:34.672Z,11.03
2018-12-05T03:42:04.782Z,10.73
2018-12-05T03:44:33.361Z,10.97
2018-12-05T03:47:02.851Z,10.93
2018-12-05T03:49:31.855Z,11.30
2018-12-05T03:52:00.825Z,11.87
2018-12-05T03:54:29.344Z,12.23
2018-12-05T03:56:57.943Z,11.10
2018-12-05T03:59:26.474Z,11.93
2018-12-05T04:01:54.999Z,11.10
2018-12-05T04:04:23.634Z,11.03
2018-12-05T04:06:52.105Z,11.47
2018-12-05T04:09:20.607Z,10.67
2018-12-05T04:11:49.210Z,9.73
2018-12-05T04:14:17.857Z,10.13
2018-12-05T04:16:46.369Z,9.97
2018-12-05T04:19:14.958Z,10.70
2018-12-05T04:21:43.645Z,10.77
2018-12-05T04:24:12.243Z,11.90
2018-12-05T04:26:40.758Z,12.23
2018-12-05T04:29:09.440Z,12.67
2018-12-05T04:31:38.008Z,14.53
2018-12-05T04:34:06.505Z,13.73
2018-12-05T04:36:34.995Z,14.03
2018-12-05T04:39:09.201Z,13.37
2018-12-05T04:41:37.682Z,14.97
2018-12-05T04:44:06.322Z,14.47
2018-12-05T04:46:34.846Z,14.50
2018-12-05T04:49:04.541Z,14.77
2018-12-05T04:51:33.084Z,15.43
2018-12-05T04:54:03.177Z,15.13
2018-12-05T04:56:31.689Z,16.93
2018-12-05T04:59:00.282Z,16.33
2018-12-05T05:01:28.777Z,16.17
2018-12-05T05:03:57.292Z,16.67
2018-12-05T05:06:25.823Z,16.87
2018-12-05T05:08:54.325Z,16.57
2018-12-05T05:11:22.845Z,16.97
2018-12-05T05:13:51.284Z,16.77
2018-12-05T05:16:19.923Z,17.13
2018-12-05T05:18:48.631Z,17.10
2018-12-05T05:21:17.156Z,16.67
2018-12-05T05:23:45.906Z,16.50
2018-12-05T05:26:14.410Z,16.10
2018-12-05T05:28:42.930Z,17.80
2018-12-05T05:31:11.567Z,16.53
2018-12-05T05:33:40.490Z,16.37
2018-12-05T05:36:08.996Z,16.60
2018-12-05T05:38:38.379Z,16.10
2018-12-05T05:41:06.894Z,15.97
2018-12-05T05:43:35.454Z,16.83
2018-12-05T05:46:05.829Z,16.40
2018-12-05T05:48:34.394Z,15.93
2018-12-05T05:51:05.202Z,16.97
2018-12-05T05:53:33.720Z,17.93
2018-12-05T05:56:04.192Z,17.00
2018-12-05T05:58:32.985Z,17.20
2018-12-05T06:01:08.013Z,17.77
2018-12-05T06:03:36.544Z,17.73
2018-12-05T06:06:05.350Z,17.30
2018-12-05T06:08:33.939Z,16.33
2018-12-05T06:11:04.671Z,16.77
2018-12-05T06:13:33.177Z,16.33
2018-12-05T06:16:03.303Z,16.43
2018-12-05T06:18:32.189Z,16.93
2018-12-05T06:21:03.328Z,17.07
2018-12-05T06:23:31.918Z,16.67
2018-12-05T06:26:00.478Z,16.33
2018-12-05T06:28:28.999Z,17.57
2018-12-05T06:30:57.603Z,16.27
2018-12-05T06:33:26.237Z,16.20
2018-12-05T06:35:54.791Z,17.07
2018-12-05T06:38:23.314Z,17.80
2018-12-05T06:40:51.806Z,18.17
2018-12-05T06:43:20.407Z,18.33
2018-12-05T06:45:48.933Z,18.73
2018-12-05T06:48:17.460Z,18.90
2018-12-05T06:50:46.096Z,18.97
2018-12-05T06:53:14.708Z,18.53
2018-12-05T06:55:43.221Z,18.87
2018-12-05T06:58:11.831Z,20.93
2018-12-05T07:00:40.360Z,19.73
2018-12-05T07:03:08.873Z,19.60
2018-12-05T07:05:38.171Z,19.90
2018-12-05T07:08:06.740Z,19.57
2018-12-05T07:10:35.288Z,19.30
2018-12-05T07:13:06.146Z,18.50
2018-12-05T07:15:34.846Z,18.23
2018-12-05T07:18:06.045Z,18.60
2018-12-05T07:20:34.924Z,18.73
2018-12-05T07:23:05.596Z,18.17
2018-12-05T07:25:34.169Z,19.40
2018-12-05T07:28:05.015Z,18.23
2018-12-05T07:30:33.551Z,18.83
2018-12-05T07:33:04.006Z,19.10
2018-12-05T07:35:33.007Z,18.60
2018-12-05T07:38:03.214Z,18.80
2018-12-05T07:40:31.703Z,17.70
2018-12-05T07:43:00.446Z,17.63
2018-12-05T07:45:28.958Z,17.60
2018-12-05T07:47:57.434Z,16.80
2018-12-05T07:50:26.188Z,18.17
2018-12-05T07:52:54.753Z,17.00
2018-12-05T07:55:23.221Z,17.47
2018-12-05T07:57:51.756Z,17.90
2018-12-05T08:00:20.294Z,17.93
2018-12-05T08:02:49.067Z,17.50
2018-12-05T08:05:17.589Z,18.97
2018-12-05T08:07:46.322Z,17.27
2018-12-05T08:10:14.921Z,18.37
2018-12-05T08:12:43.430Z,15.70
2018-12-05T08:15:12.023Z,15.50
2018-12-05T08:17:40.566Z,16.00
2018-12-05T08:20:09.147Z,16.57
2018-12-05T08:22:38.004Z,14.90
2018-12-05T08:25:06.769Z,15.73
2018-12-05T08:27:35.340Z,15.37
2018-12-05T08:30:05.700Z,16.30
2018-12-05T08:32:34.216Z,15.23
2018-12-05T08:35:04.443Z,17.07
2018-12-05T08:37:33.500Z,16.10
2018-12-05T08:40:05.235Z,14.93
2018-12-05T08:42:33.768Z,15.70
2018-12-05T08:45:03.708Z,15.23
2018-12-05T08:47:33.861Z,14.00
2018-12-05T08:50:03.768Z,13.60
2018-12-05T08:52:32.337Z,14.10
2018-12-05T08:55:00.864Z,13.57
2018-12-05T08:57:30.343Z,13.40
2018-12-05T08:59:58.856Z,13.73
2018-12-05T09:02:27.362Z,14.17
2018-12-05T09:04:55.938Z,13.60
2018-12-05T09:07:24.463Z,14.47
2018-12-05T09:09:52.942Z,12.73
2018-12-05T09:12:21.577Z,12.57
2018-12-05T09:14:50.092Z,12.63
2018-12-05T09:17:18.571Z,13.73
2018-12-05T09:19:47.272Z,13.37
2018-12-05T09:22:15.892Z,13.40
2018-12-05T09:24:44.365Z,12.20
2018-12-05T09:27:12.940Z,11.73
2018-12-05T09:29:41.427Z,12.30
2018-12-05T09:32:09.957Z,12.00
2018-12-05T09:34:38.492Z,12.80
2018-12-05T09:37:06.985Z,11.67
2018-12-05T09:39:35.484Z,12.20
2018-12-05T09:42:05.598Z,11.63
2018-12-05T09:44:34.130Z,11.50
2018-12-05T09:47:03.691Z,11.83
2018-12-05T09:49:32.204Z,11.77
2018-12-05T09:52:00.976Z,11.37
2018-12-05T09:54:29.558Z,11.87
2018-12-05T09:56:58.151Z,11.23
2018-12-05T09:59:26.730Z,10.90
2018-12-05T10:01:55.271Z,11.27
2018-12-05T10:04:24.246Z,11.70
2018-12-05T10:06:52.731Z,10.93
2018-12-05T10:09:21.436Z,11.60
2018-12-05T10:11:49.943Z,10.80
2018-12-05T10:14:18.481Z,10.93
2018-12-05T10:16:47.188Z,12.07
2018-12-05T10:19:15.716Z,11.30
2018-12-05T10:21:44.357Z,10.80
2018-12-05T10:24:12.897Z,10.50
2018-12-05T10:26:41.466Z,10.60
2018-12-05T10:29:09.952Z,10.43
2018-12-05T10:31:44.049Z,10.60
2018-12-05T10:34:09.143Z,10.50
2018-12-05T10:36:37.633Z,10.37
2018-12-05T10:39:07.408Z,9.97
2018-12-05T10:41:35.935Z,10.60
2018-12-05T10:44:05.735Z,10.93
2018-12-05T10:46:34.493Z,10.27
2018-12-05T10:49:04.845Z,10.10
2018-12-05T10:51:33.369Z,10.53
2018-12-05T10:54:03.062Z,9.83
2018-12-05T10:56:31.574Z,10.60
2018-12-05T10:59:00.124Z,10.03
2018-12-05T11:01:33.919Z,10.27
2018-12-05T11:04:08.800Z,10.50
2018-12-05T11:06:42.606Z,10.20
2018-12-05T11:09:16.254Z,9.67
2018-12-05T11:11:49.811Z,10.40
2018-12-05T11:14:23.576Z,10.47
2018-12-05T11:16:57.238Z,9.80
2018-12-05T11:19:31.810Z,9.70
2018-12-05T11:22:05.570Z,9.30
2018-12-05T11:24:36.467Z,9.67
2018-12-05T11:27:05.650Z,9.37
2018-12-05T11:29:34.370Z,9.53
2018-12-05T11:32:04.892Z,9.77
2018-12-05T11:34:33.456Z,9.17
2018-12-05T11:37:04.158Z,9.63
2018-12-05T11:39:32.841Z,9.77
2018-12-05T11:42:03.511Z,9.80
2018-12-05T11:44:32.062Z,11.20
2018-12-05T11:47:00.925Z,8.50
2018-12-05T11:49:29.444Z,9.53
2018-12-05T11:51:57.942Z,9.57
2018-12-05T11:54:27.100Z,11.00
2018-12-05T11:56:55.612Z,12.70
2018-12-05T11:59:24.190Z,9.13
2018-12-05T12:01:52.752Z,9.30
2018-12-05T12:04:21.347Z,9.90
2018-12-05T12:06:49.843Z,8.70
2018-12-05T12:09:18.332Z,9.00
2018-12-05T12:11:46.844Z,9.73
2018-12-05T12:14:15.424Z,9.60
2018-12-05T12:16:44.001Z,8.97
2018-12-05T12:19:12.489Z,9.40
2018-12-05T12:21:43.449Z,8.80
2018-12-05T12:24:12.011Z,9.70
2018-12-05T12:26:40.677Z,8.70
2018-12-05T12:29:09.201Z,9.60
2018-12-05T12:31:37.738Z,8.97
2018-12-05T12:34:06.265Z,8.80
2018-12-05T12:36:35.846Z,9.23
2018-12-05T12:39:07.791Z,9.30
2018-12-05T12:41:36.315Z,9.03
2018-12-05T12:44:06.365Z,8.50
2018-12-05T12:46:34.873Z,9.37
2018-12-05T12:49:04.767Z,10.00
2018-12-05T12:51:33.296Z,12.13
2018-12-05T12:54:02.613Z,11.90
2018-12-05T12:56:31.428Z,11.30
2018-12-05T12:58:59.897Z,9.87
2018-12-05T13:01:28.415Z,10.70
2018-12-05T13:03:57.198Z,9.57
2018-12-05T13:06:25.690Z,10.13
2018-12-05T13:08:54.261Z,9.60
2018-12-05T13:11:22.930Z,10.27
2018-12-05T13:13:51.413Z,10.10
2018-12-05T13:16:19.997Z,9.30
2018-12-05T13:18:48.509Z,9.43
2018-12-05T13:21:17.020Z,9.70
2018-12-05T13:23:45.501Z,9.40
2018-12-05T13:26:14.053Z,9.87
2018-12-05T13:28:42.527Z,9.50
2018-12-05T13:31:11.131Z,9.60
2018-12-05T13:33:39.734Z,9.73
2018-12-05T13:36:08.588Z,9.70
2018-12-05T13:38:38.167Z,9.77
2018-12-05T13:41:06.680Z,9.57
2018-12-05T13:43:35.227Z,10.73
2018-12-05T13:46:05.546Z,10.43
2018-12-05T13:48:34.156Z,9.50
2018-12-05T13:51:03.770Z,9.10
2018-12-05T13:53:32.306Z,9.70
2018-12-05T13:56:00.793Z,9.40
2018-12-05T13:58:29.339Z,9.23
2018-12-05T14:00:57.850Z,9.83
2018-12-05T14:03:26.382Z,9.67
2018-12-05T14:05:55.008Z,10.23
2018-12-05T14:08:23.710Z,10.13
2018-12-05T14:10:52.312Z,9.43
2018-12-05T14:13:20.811Z,10.00
2018-12-05T14:15:49.344Z,10.13
2018-12-05T14:18:17.969Z,10.27
2018-12-05T14:20:46.608Z,10.27
2018-12-05T14:23:15.496Z,9.83
2018-12-05T14:25:44.099Z,10.57
2018-12-05T14:28:12.580Z,10.20
2018-12-05T14:30:42.092Z,10.57
2018-12-05T14:33:10.686Z,10.10
2018-12-05T14:35:39.190Z,9.87
2018-12-05T14:38:07.692Z,10.13
2018-12-05T14:40:36.199Z,9.73
2018-12-05T14:43:05.139Z,10.07
2018-12-05T14:45:33.680Z,9.83
2018-12-05T14:48:04.526Z,9.80
2018-12-05T14:50:33.130Z,10.67
2018-12-05T14:53:02.717Z,9.83
2018-12-05T14:55:31.275Z,9.87
2018-12-05T14:57:59.841Z,9.47
2018-12-05T15:00:28.620Z,10.57
2018-12-05T15:02:57.114Z,10.37
2018-12-05T15:05:25.617Z,9.83
2018-12-05T15:07:54.319Z,10.07
2018-12-05T15:10:22.898Z,10.03
2018-12-05T15:12:52.314Z,10.53
2018-12-05T15:15:20.865Z,10.13
2018-12-05T15:17:49.638Z,10.83
2018-12-05T15:20:18.190Z,10.27
2018-12-05T15:22:46.751Z,9.57
2018-12-05T15:25:15.261Z,9.93
2018-12-05T15:27:43.771Z,9.73
2018-12-05T15:30:12.749Z,10.30
2018-12-05T15:32:41.347Z,11.03
2018-12-05T15:35:10.053Z,9.77
2018-12-05T15:37:38.983Z,11.27
2018-12-05T15:40:07.559Z,9.97
2018-12-05T15:42:36.031Z,10.20
2018-12-05T15:45:07.114Z,9.87
2018-12-05T15:47:36.677Z,10.23
2018-12-05T15:50:06.959Z,9.53
2018-12-05T15:52:35.847Z,10.30
2018-12-05T15:55:05.019Z,11.77
2018-12-05T15:57:33.590Z,9.23
2018-12-05T16:00:03.755Z,10.27
2018-12-05T16:02:32.347Z,9.57
2018-12-05T16:05:00.916Z,10.13
2018-12-05T16:07:29.624Z,10.33
2018-12-05T16:09:58.153Z,10.07
2018-12-05T16:12:26.687Z,10.50
2018-12-05T16:14:55.592Z,9.90
2018-12-05T16:17:24.082Z,9.80
2018-12-05T16:19:52.632Z,10.07
2018-12-05T16:22:21.146Z,9.93
2018-12-05T16:24:49.648Z,9.80
2018-12-05T16:27:18.230Z,9.70
2018-12-05T16:29:46.881Z,10.80
2018-12-05T16:32:15.387Z,9.83
2018-12-05T16:34:43.916Z,9.10
2018-12-05T16:37:12.424Z,10.30
2018-12-05T16:39:40.962Z,9.87
2018-12-05T16:42:09.661Z,9.23
2018-12-05T16:44:38.187Z,9.80
2018-12-05T16:47:06.753Z,9.67
2018-12-05T16:49:35.278Z,10.73
2018-12-05T16:52:08.516Z,9.23
2018-12-05T16:54:37.532Z,9.67
2018-12-05T16:57:06.069Z,10.73
2018-12-05T16:59:34.653Z,10.47
2018-12-05T17:02:04.528Z,10.90
2018-12-05T17:04:33.084Z,10.37
2018-12-05T17:07:02.825Z,10.63
2018-12-05T17:09:31.335Z,12.67
2018-12-05T17:12:00.040Z,12.00
2018-12-05T17:14:28.773Z,11.63
2018-12-05T17:16:57.295Z,11.57
2018-12-05T17:19:25.800Z,10.77
2018-12-05T17:21:54.534Z,10.23
2018-12-05T17:24:23.204Z,10.43
2018-12-05T17:26:51.743Z,10.60
2018-12-05T17:29:20.311Z,10.93
2018-12-05T17:31:48.934Z,11.10
2018-12-05T17:34:17.464Z,12.20
2018-12-05T17:36:46.099Z,11.87
2018-12-05T17:39:14.796Z,12.03
2018-12-05T17:41:43.333Z,10.90
2018-12-05T17:44:11.923Z,11.40
2018-12-05T17:46:40.611Z,12.40
2018-12-05T17:49:09.160Z,11.73
2018-12-05T17:51:37.662Z,12.77
2018-12-05T17:54:06.384Z,11.53
2018-12-05T17:56:35.101Z,12.20
2018-12-05T17:59:05.277Z,11.40
2018-12-05T18:01:33.807Z,12.43
2018-12-05T18:04:04.161Z,12.13
2018-12-05T18:06:32.651Z,11.83
2018-12-05T18:09:03.279Z,12.40
2018-12-05T18:11:31.872Z,12.40
2018-12-05T18:14:00.444Z,11.77
2018-12-05T18:16:29.140Z,12.83
2018-12-05T18:18:57.656Z,12.23
2018-12-05T18:21:26.139Z,11.83
2018-12-05T18:23:54.649Z,12.17
2018-12-05T18:26:23.178Z,12.17
2018-12-05T18:28:51.835Z,13.00
2018-12-05T18:31:20.579Z,13.00
2018-12-05T18:33:49.150Z,12.47
2018-12-05T18:36:17.671Z,12.57
2018-12-05T18:38:46.199Z,11.97
2018-12-05T18:41:14.796Z,12.77
2018-12-05T18:43:43.348Z,13.70
2018-12-05T18:46:12.383Z,11.83
2018-12-05T18:48:41.035Z,12.27
2018-12-05T18:51:09.659Z,12.57
2018-12-05T18:53:38.544Z,13.33
2018-12-05T18:56:07.076Z,13.07
2018-12-05T18:58:35.904Z,12.23
2018-12-05T19:01:05.438Z,12.90
2018-12-05T19:03:34.106Z,12.83
2018-12-05T19:06:03.797Z,12.30
2018-12-05T19:08:34.365Z,12.53
2018-12-05T19:11:06.602Z,12.73
2018-12-05T19:13:39.265Z,12.27
2018-12-05T19:16:08.076Z,13.00
2018-12-05T19:18:36.937Z,13.10
2018-12-05T19:21:05.519Z,12.67
2018-12-05T19:23:34.385Z,13.33
2018-12-05T19:26:04.528Z,13.03
2018-12-05T19:28:33.868Z,12.80
2018-12-05T19:31:04.584Z,12.40
2018-12-05T19:33:33.551Z,13.37
2018-12-05T19:36:03.999Z,12.90
2018-12-05T19:38:36.293Z,13.43
2018-12-05T19:41:06.769Z,13.83
2018-12-05T19:43:35.580Z,14.20
2018-12-05T19:46:05.247Z,14.00
2018-12-05T19:48:33.905Z,14.90
2018-12-05T19:51:03.928Z,14.67
2018-12-05T19:53:32.742Z,15.00
2018-12-05T19:56:03.524Z,14.87
2018-12-05T19:58:32.082Z,14.63
2018-12-05T20:01:00.777Z,15.93
2018-12-05T20:03:29.329Z,14.67
2018-12-05T20:06:04.284Z,14.63
2018-12-05T20:08:32.901Z,14.47
2018-12-05T20:11:02.760Z,15.87
2018-12-05T20:13:36.735Z,15.43
2018-12-05T20:16:06.348Z,15.63
2018-12-05T20:18:35.007Z,14.93
2018-12-05T20:21:07.647Z,15.47
2018-12-05T20:23:36.290Z,14.77
2018-12-05T20:26:06.158Z,14.20
2018-12-05T20:28:35.321Z,15.87
2018-12-05T20:31:07.111Z,16.00
2018-12-05T20:33:35.702Z,16.53
2018-12-05T20:36:07.197Z,15.30
2018-12-05T20:38:35.948Z,16.10
2018-12-05T20:41:07.284Z,16.10
2018-12-05T20:43:35.909Z,16.90
2018-12-05T20:46:05.602Z,16.60
2018-12-05T20:48:34.704Z,17.47
2018-12-05T20:51:06.271Z,17.43
2018-12-05T20:53:35.298Z,17.57
2018-12-05T20:56:05.654Z,18.33
2018-12-05T20:58:34.720Z,17.07
2018-12-05T21:01:06.141Z,18.27
2018-12-05T21:03:34.725Z,18.30
2018-12-05T21:06:04.991Z,19.10
2018-12-05T21:08:35.368Z,18.00
2018-12-05T21:11:06.869Z,17.60
2018-12-05T21:13:35.442Z,18.07
2018-12-05T21:16:06.844Z,18.83
2018-12-05T21:18:35.444Z,18.60
2018-12-05T21:21:05.848Z,18.03
2018-12-05T21:23:34.436Z,19.90
2018-12-05T21:26:05.808Z,19.23
2018-12-05T21:28:34.804Z,17.50
2018-12-05T21:31:05.013Z,16.80
2018-12-05T21:33:33.675Z,17.33
2018-12-05T21:36:03.882Z,17.07
2018-12-05T21:38:33.143Z,17.00
2018-12-05T21:41:06.316Z,17.47
2018-12-05T21:43:35.707Z,16.93
2018-12-05T21:46:05.314Z,16.57
2018-12-05T21:48:34.057Z,17.43
2018-12-05T21:51:04.768Z,16.67
2018-12-05T21:53:33.311Z,16.40
2018-12-05T21:56:03.376Z,16.03
2018-12-05T21:58:31.897Z,16.97
2018-12-05T22:01:00.573Z,16.47
2018-12-05T22:03:29.628Z,16.40
2018-12-05T22:05:58.217Z,16.13
2018-12-05T22:08:26.854Z,15.67
2018-12-05T22:10:55.453Z,15.27
2018-12-05T22:13:23.971Z,15.73
2018-12-05T22:15:52.506Z,15.27
2018-12-05T22:18:21.038Z,15.47
2018-12-05T22:20:49.542Z,15.53
2018-12-05T22:23:18.312Z,15.80
2018-12-05T22:25:46.898Z,14.57
2018-12-05T22:28:15.501Z,15.07
2018-12-05T22:30:44.240Z,15.70
2018-12-05T22:33:12.761Z,15.00
2018-12-05T22:35:41.352Z,13.83
2018-12-05T22:38:10.203Z,15.20
2018-12-05T22:40:38.833Z,15.80
2018-12-05T22:43:07.402Z,14.97
2018-12-05T22:45:36.002Z,14.77
2018-12-05T22:48:05.591Z,14.27
2018-12-05T22:50:34.171Z,14.63
2018-12-05T22:53:05.174Z,14.93
2018-12-05T22:55:33.802Z,13.63
2018-12-05T22:58:04.429Z,14.40
2018-12-05T23:00:34.188Z,14.27
2018-12-05T23:03:04.315Z,13.63
2018-12-05T23:05:32.830Z,13.37
2018-12-05T23:08:04.648Z,13.43
2018-12-05T23:10:33.182Z,14.73
2018-12-05T23:13:04.836Z,13.60
2018-12-05T23:15:33.810Z,14.37
2018-12-05T23:18:03.879Z,14.50
2018-12-05T23:20:32.452Z,13.97
2018-12-05T23:23:03.215Z,14.20
2018-12-05T23:25:31.731Z,13.93
2018-12-05T23:28:00.415Z,14.33
2018-12-05T23:30:29.042Z,14.50
2018-12-05T23:32:57.630Z,14.97
2018-12-05T23:35:26.169Z,14.77
2018-12-05T23:37:54.747Z,14.57
2018-12-05T23:40:23.358Z,14.53
2018-12-05T23:42:51.927Z,14.57
2018-12-05T23:45:21.194Z,15.73
2018-12-05T23:47:49.697Z,14.87
2018-12-05T23:50:18.291Z,16.23
2018-12-05T23:52:47.031Z,16.23
2018-12-05T23:55:15.526Z,16.13
2018-12-05T23:57:44.198Z,15.60
